Time;durP1;ratioP1;P1;durP2;ratioP2;P2;SDS_P1;SDS_P2;PMS_P1;PMS_P2;Temp;Humidity;BMP_temperature;BMP_pressure;BME280_temperature;BME280_humidity;BME280_pressure;Samples;Min_cycle;Max_cycle;Signal;HPM_P1;HPM_P2
2022/06/23 00:01:49;;;;;;;7.07;4.40;;;;;;;;;;5010588;28;20189;-84
2022/06/23 00:04:19;;;;;;;6.63;3.57;;;;;;;;;;5009392;28;20186;-85
2022/06/23 00:06:47;;;;;;;7.07;3.73;;;;;;;;;;5010572;28;20196;-84
2022/06/23 00:09:25;;;;;;;7.23;4.37;;;;;;;;;;5011291;28;20194;-85
2022/06/23 00:11:50;;;;;;;7.80;3.73;;;;;;;;;;5007707;28;20192;-84
2022/06/23 00:14:15;;;;;;;8.57;5.00;;;;;;;;;;5010417;28;20181;-85
2022/06/23 00:16:40;;;;;;;9.27;4.97;;;;;;;;;;5010240;28;20201;-84
2022/06/23 00:19:09;;;;;;;8.60;4.23;;;;;;;;;;5010179;28;20221;-85
2022/06/23 00:21:35;;;;;;;10.53;3.83;;;;;;;;;;5005547;28;20208;-85
2022/06/23 00:24:02;;;;;;;8.63;4.30;;;;;;;;;;5009015;28;20248;-84
2022/06/23 00:26:29;;;;;;;8.30;4.13;;;;;;;;;;5002534;28;20176;-85
2022/06/23 00:29:15;;;;;;;6.57;3.77;;;;;;;;;;5005365;28;20198;-85
2022/06/23 00:31:42;;;;;;;7.43;4.00;;;;;;;;;;5024104;28;20180;-85
2022/06/23 00:34:16;;;;;;;6.77;3.40;;;;;;;;;;5009151;28;20249;-84
2022/06/23 00:36:47;;;;;;;9.13;3.60;;;;;;;;;;5009333;28;20212;-84
2022/06/23 00:39:31;;;;;;;10.20;4.00;;;;;;;;;;5008348;28;20322;-84
2022/06/23 00:41:56;;;;;;;7.93;4.87;;;;;;;;;;5007620;28;20593;-84
2022/06/23 00:44:31;;;;;;;4.37;3.43;;;;;;;;;;5006609;28;20260;-85
2022/06/23 00:46:58;;;;;;;4.87;3.23;;;;;;;;;;4996949;28;20187;-84
2022/06/23 00:49:30;;;;;;;8.10;3.43;;;;;;;;;;5005799;28;20187;-85
2022/06/23 00:51:59;;;;;;;7.20;3.97;;;;;;;;;;5022359;28;20194;-84
2022/06/23 00:54:28;;;;;;;8.97;4.23;;;;;;;;;;5009762;28;20176;-85
2022/06/23 00:56:53;;;;;;;8.63;4.27;;;;;;;;;;5007902;28;20218;-85
2022/06/23 00:59:21;;;;;;;9.33;3.90;;;;;;;;;;5008781;28;20190;-85
2022/06/23 01:01:50;;;;;;;8.50;4.07;;;;;;;;;;5000734;28;20185;-85
2022/06/23 01:04:22;;;;;;;8.57;4.50;;;;;;;;;;5010202;28;20183;-84
2022/06/23 01:07:16;;;;;;;9.60;4.07;;;;;;;;;;5009202;28;20190;-85
2022/06/23 01:09:47;;;;;;;6.80;4.30;;;;;;;;;;4954461;28;20190;-84
2022/06/23 01:12:20;;;;;;;9.40;3.80;;;;;;;;;;5008714;28;20244;-85
2022/06/23 01:14:49;;;;;;;5.67;3.57;;;;;;;;;;5009165;28;20265;-84
2022/06/23 01:17:26;;;;;;;5.67;3.70;;;;;;;;;;5008765;28;20196;-84
2022/06/23 01:19:58;;;;;;;7.47;4.43;;;;;;;;;;5008141;28;20216;-85
2022/06/23 01:22:29;;;;;;;10.63;4.57;;;;;;;;;;5008063;28;20266;-84
2022/06/23 01:25:13;;;;;;;10.17;4.00;;;;;;;;;;5008223;28;20184;-84
2022/06/23 01:27:47;;;;;;;8.80;4.10;;;;;;;;;;5008780;28;20245;-85
2022/06/23 01:30:13;;;;;;;7.73;4.50;;;;;;;;;;5025540;28;20197;-85
2022/06/23 01:32:39;;;;;;;8.30;4.53;;;;;;;;;;5008297;28;20180;-84
2022/06/23 01:35:18;;;;;;;6.70;3.30;;;;;;;;;;5007488;28;20183;-83
2022/06/23 01:37:52;;;;;;;8.80;5.70;;;;;;;;;;5008345;28;20213;-84
2022/06/23 01:40:20;;;;;;;7.23;4.30;;;;;;;;;;5005364;28;20174;-84
2022/06/23 01:42:55;;;;;;;7.10;3.50;;;;;;;;;;5010782;28;20182;-84
2022/06/23 01:45:25;;;;;;;5.53;3.80;;;;;;;;;;5004637;28;20180;-85
2022/06/23 01:47:55;;;;;;;7.87;4.10;;;;;;;;;;5008807;28;20211;-84
2022/06/23 01:50:20;;;;;;;9.90;4.80;;;;;;;;;;5016717;28;20173;-84
2022/06/23 01:53:01;;;;;;;9.17;4.33;;;;;;;;;;5009208;28;20186;-84
2022/06/23 01:55:29;;;;;;;7.87;3.67;;;;;;;;;;5008669;28;20187;-83
2022/06/23 01:58:02;;;;;;;7.50;4.63;;;;;;;;;;5022778;28;20206;-84
2022/06/23 02:00:27;;;;;;;6.83;4.60;;;;;;;;;;5008945;28;20174;-84
2022/06/23 02:02:58;;;;;;;7.30;4.40;;;;;;;;;;5009203;28;20510;-84
2022/06/23 02:05:43;;;;;;;8.50;3.77;;;;;;;;;;5009648;28;20186;-84
2022/06/23 02:08:27;;;;;;;8.67;4.40;;;;;;;;;;5004825;28;20175;-84
2022/06/23 02:10:58;;;;;;;10.07;4.07;;;;;;;;;;5011551;28;20189;-84
2022/06/23 02:13:26;;;;;;;8.30;3.70;;;;;;;;;;5008697;28;20169;-84
2022/06/23 02:15:54;;;;;;;6.00;4.00;;;;;;;;;;5011019;28;20205;-84
2022/06/23 02:18:26;;;;;;;10.23;6.33;;;;;;;;;;5011893;28;20325;-83
2022/06/23 02:20:58;;;;;;;7.43;3.43;;;;;;;;;;5022987;28;20184;-84
2022/06/23 02:23:41;;;;;;;5.80;3.53;;;;;;;;;;5005918;28;23505;-83
2022/06/23 02:26:09;;;;;;;6.57;3.43;;;;;;;;;;5008134;28;20196;-84
2022/06/23 02:28:38;;;;;;;8.47;3.80;;;;;;;;;;5008996;28;20183;-83
2022/06/23 02:31:10;;;;;;;4.93;3.60;;;;;;;;;;5023342;28;20185;-83
2022/06/23 02:33:38;;;;;;;6.70;3.87;;;;;;;;;;5007575;28;20285;-83
2022/06/23 02:36:18;;;;;;;8.67;4.40;;;;;;;;;;5005769;28;20228;-84
2022/06/23 02:38:49;;;;;;;7.57;4.07;;;;;;;;;;5024146;28;20504;-83
2022/06/23 02:41:21;;;;;;;8.33;4.40;;;;;;;;;;5008377;28;20184;-83
2022/06/23 02:43:52;;;;;;;4.50;3.80;;;;;;;;;;5004359;28;20212;-83
2022/06/23 02:46:38;;;;;;;7.50;3.77;;;;;;;;;;5015051;28;20397;-83
2022/06/23 02:49:04;;;;;;;7.90;4.20;;;;;;;;;;5012316;28;20490;-83
2022/06/23 02:51:29;;;;;;;6.23;3.70;;;;;;;;;;5012693;28;20195;-83
2022/06/23 02:54:14;;;;;;;7.27;3.40;;;;;;;;;;5015501;28;20217;-84
2022/06/23 02:56:39;;;;;;;8.70;3.93;;;;;;;;;;5010788;28;20252;-83
2022/06/23 02:59:11;;;;;;;5.10;3.40;;;;;;;;;;5012614;28;20645;-83
2022/06/23 03:01:45;;;;;;;11.30;4.00;;;;;;;;;;5009567;28;20220;-83
2022/06/23 03:04:18;;;;;;;8.07;3.43;;;;;;;;;;5014075;28;20218;-83
2022/06/23 03:06:46;;;;;;;10.17;3.70;;;;;;;;;;5010414;28;20187;-83
2022/06/23 03:09:20;;;;;;;9.73;3.93;;;;;;;;;;5011704;28;20213;-83
2022/06/23 03:12:02;;;;;;;7.77;3.90;;;;;;;;;;5020466;28;20399;-83
2022/06/23 03:14:30;;;;;;;9.03;3.77;;;;;;;;;;5009732;28;20182;-83
2022/06/23 03:16:59;;;;;;;6.73;4.37;;;;;;;;;;5010033;28;20204;-83
2022/06/23 03:19:31;;;;;;;7.93;4.30;;;;;;;;;;5012436;28;20232;-84
2022/06/23 03:22:09;;;;;;;9.13;4.27;;;;;;;;;;5010887;28;20183;-83
2022/06/23 03:24:51;;;;;;;9.00;4.13;;;;;;;;;;5013496;28;20189;-84
2022/06/23 03:27:24;;;;;;;6.80;3.80;;;;;;;;;;5009466;28;20189;-83
2022/06/23 03:29:53;;;;;;;7.60;3.77;;;;;;;;;;5010034;28;20187;-83
2022/06/23 03:32:21;;;;;;;8.80;4.00;;;;;;;;;;5011999;28;20174;-83
2022/06/23 03:34:49;;;;;;;9.90;4.30;;;;;;;;;;5010489;28;20218;-83
2022/06/23 03:37:14;;;;;;;7.50;4.03;;;;;;;;;;5011233;28;20312;-83
2022/06/23 03:42:26;;;;;;;8.20;3.73;;;;;;;;;;5012401;28;20196;-83
2022/06/23 03:45:03;;;;;;;6.00;3.50;;;;;;;;;;5009089;28;20185;-83
2022/06/23 03:47:31;;;;;;;6.83;3.70;;;;;;;;;;5012989;28;20177;-83
2022/06/23 03:50:14;;;;;;;7.27;3.83;;;;;;;;;;5010522;28;20214;-83
2022/06/23 03:52:45;;;;;;;6.97;3.60;;;;;;;;;;5005308;28;20263;-83
2022/06/23 03:55:24;;;;;;;7.37;4.70;;;;;;;;;;5010302;28;20206;-83
2022/06/23 03:57:53;;;;;;;8.73;4.50;;;;;;;;;;5012563;28;20289;-83
2022/06/23 04:00:51;;;;;;;10.23;4.73;;;;;;;;;;5023262;28;20213;-83
2022/06/23 04:03:36;;;;;;;11.77;4.50;;;;;;;;;;4954922;28;20193;-83
2022/06/23 04:06:21;;;;;;;11.87;4.70;;;;;;;;;;5007097;28;20249;-83
2022/06/23 04:08:49;;;;;;;13.03;5.33;;;;;;;;;;5005239;28;20234;-83
2022/06/23 04:14:03;;;;;;;13.77;4.10;;;;;;;;;;5011094;28;20197;-83
2022/06/23 04:16:31;;;;;;;10.57;4.07;;;;;;;;;;5011070;28;20204;-83
2022/06/23 04:18:56;;;;;;;12.97;4.60;;;;;;;;;;5011563;28;20220;-83
2022/06/23 04:21:24;;;;;;;10.63;4.07;;;;;;;;;;5010605;28;20429;-83
2022/06/23 04:23:52;;;;;;;7.50;4.03;;;;;;;;;;5015142;28;20243;-83
2022/06/23 04:26:20;;;;;;;6.87;4.70;;;;;;;;;;5010627;28;20192;-83
2022/06/23 04:28:47;;;;;;;7.87;4.00;;;;;;;;;;5010578;28;20199;-83
2022/06/23 04:31:16;;;;;;;11.93;4.03;;;;;;;;;;5023329;28;20196;-83
2022/06/23 04:33:43;;;;;;;11.80;4.23;;;;;;;;;;5012091;28;20171;-83
2022/06/23 04:36:20;;;;;;;9.33;4.57;;;;;;;;;;5001884;28;20214;-83
2022/06/23 04:38:55;;;;;;;15.43;10.40;;;;;;;;;;5003770;28;20191;-84
2022/06/23 04:41:29;;;;;;;18.10;10.67;;;;;;;;;;5007106;28;20182;-83
2022/06/23 04:43:55;;;;;;;9.23;6.10;;;;;;;;;;5005203;28;20321;-84
2022/06/23 04:46:26;;;;;;;12.53;6.00;;;;;;;;;;5008135;28;20267;-84
2022/06/23 04:48:57;;;;;;;10.23;5.40;;;;;;;;;;5021190;28;20196;-85
2022/06/23 04:51:25;;;;;;;8.53;5.77;;;;;;;;;;5008964;28;20188;-85
2022/06/23 04:53:53;;;;;;;9.50;5.70;;;;;;;;;;5006729;28;20185;-85
2022/06/23 04:56:22;;;;;;;11.70;4.43;;;;;;;;;;5007839;28;20210;-85
2022/06/23 04:58:52;;;;;;;9.73;4.60;;;;;;;;;;5010699;28;20186;-86
2022/06/23 05:01:22;;;;;;;7.63;4.80;;;;;;;;;;5009520;28;20180;-86
2022/06/23 05:03:50;;;;;;;10.23;4.83;;;;;;;;;;5024701;28;20221;-84
2022/06/23 05:06:27;;;;;;;10.10;4.77;;;;;;;;;;5004922;28;20191;-86
2022/06/23 05:08:56;;;;;;;9.30;4.47;;;;;;;;;;5008003;28;20191;-86
2022/06/23 05:11:34;;;;;;;6.03;3.70;;;;;;;;;;5004316;28;20187;-86
2022/06/23 05:14:13;;;;;;;8.97;4.63;;;;;;;;;;5010507;28;20185;-85
2022/06/23 05:16:41;;;;;;;10.07;4.10;;;;;;;;;;5001706;28;20194;-85
2022/06/23 05:19:08;;;;;;;6.63;3.83;;;;;;;;;;5010367;28;20226;-84
2022/06/23 05:21:41;;;;;;;8.70;4.67;;;;;;;;;;5006786;28;20181;-86
2022/06/23 05:24:08;;;;;;;8.47;3.93;;;;;;;;;;5009795;28;20297;-86
2022/06/23 05:26:38;;;;;;;9.73;4.07;;;;;;;;;;5005082;28;20281;-86
2022/06/23 05:29:24;;;;;;;7.27;4.03;;;;;;;;;;5010065;28;20186;-84
2022/06/23 05:31:50;;;;;;;5.87;3.80;;;;;;;;;;5009398;28;20187;-86
2022/06/23 05:34:22;;;;;;;6.13;5.53;;;;;;;;;;5009029;28;20209;-86
2022/06/23 05:36:50;;;;;;;13.10;4.33;;;;;;;;;;5007900;28;20218;-87
2022/06/23 05:39:19;;;;;;;7.73;5.80;;;;;;;;;;5008227;28;20173;-85
2022/06/23 05:41:46;;;;;;;8.03;3.50;;;;;;;;;;5007606;28;20176;-84
2022/06/23 05:44:16;;;;;;;7.70;4.13;;;;;;;;;;5007732;28;20266;-86
2022/06/23 05:46:42;;;;;;;7.80;4.63;;;;;;;;;;5008423;28;20183;-87
2022/06/23 05:49:15;;;;;;;8.43;3.90;;;;;;;;;;5007292;28;20192;-85
2022/06/23 05:51:44;;;;;;;9.63;5.20;;;;;;;;;;5006228;28;20190;-86
2022/06/23 05:54:29;;;;;;;11.40;5.07;;;;;;;;;;5006336;28;20184;-85
2022/06/23 05:57:15;;;;;;;8.80;4.10;;;;;;;;;;4998154;28;20227;-86
2022/06/23 05:59:44;;;;;;;10.53;4.10;;;;;;;;;;5004109;28;20170;-86
2022/06/23 06:02:12;;;;;;;6.93;3.70;;;;;;;;;;5020965;28;20178;-85
2022/06/23 06:04:43;;;;;;;7.77;4.50;;;;;;;;;;5009971;28;20175;-86
2022/06/23 06:07:12;;;;;;;6.57;4.00;;;;;;;;;;5005097;28;20484;-85
2022/06/23 06:09:40;;;;;;;6.57;4.10;;;;;;;;;;5008997;28;20191;-87
2022/06/23 06:12:07;;;;;;;7.10;3.80;;;;;;;;;;5009061;28;20183;-85
2022/06/23 06:14:39;;;;;;;6.80;3.93;;;;;;;;;;5005571;28;20177;-85
2022/06/23 06:17:05;;;;;;;9.47;3.80;;;;;;;;;;5007181;28;20200;-85
2022/06/23 06:19:31;;;;;;;8.43;3.37;;;;;;;;;;5009134;28;20224;-87
2022/06/23 06:21:58;;;;;;;7.17;4.20;;;;;;;;;;5009989;28;20181;-86
2022/06/23 06:24:27;;;;;;;9.40;4.23;;;;;;;;;;5012544;28;20188;-84
2022/06/23 06:26:53;;;;;;;7.60;3.70;;;;;;;;;;5011442;28;20244;-86
2022/06/23 06:29:23;;;;;;;4.97;3.87;;;;;;;;;;5012211;28;20277;-85
2022/06/23 06:31:58;;;;;;;10.40;3.87;;;;;;;;;;5009823;28;20173;-86
2022/06/23 06:34:30;;;;;;;8.40;4.57;;;;;;;;;;5011512;28;20186;-85
2022/06/23 06:36:55;;;;;;;11.57;3.70;;;;;;;;;;5011274;28;20217;-86
2022/06/23 06:39:26;;;;;;;5.70;3.47;;;;;;;;;;5013536;28;20178;-84
2022/06/23 06:42:11;;;;;;;8.30;3.40;;;;;;;;;;5012864;28;20225;-86
2022/06/23 06:44:40;;;;;;;6.47;3.30;;;;;;;;;;5012286;28;20170;-85
2022/06/23 06:47:05;;;;;;;8.07;3.83;;;;;;;;;;5008831;28;20204;-85
2022/06/23 06:49:32;;;;;;;6.87;3.33;;;;;;;;;;5009879;28;20182;-86
2022/06/23 06:51:58;;;;;;;7.20;3.40;;;;;;;;;;5010229;28;20190;-86
2022/06/23 06:54:26;;;;;;;7.53;3.10;;;;;;;;;;5012705;28;20194;-87
2022/06/23 06:56:54;;;;;;;7.30;3.30;;;;;;;;;;5012948;28;20198;-86
2022/06/23 06:59:23;;;;;;;8.47;2.47;;;;;;;;;;5011667;28;20315;-85
2022/06/23 07:02:04;;;;;;;8.47;3.53;;;;;;;;;;5010383;28;20182;-87
2022/06/23 07:04:32;;;;;;;4.83;2.80;;;;;;;;;;5005194;28;20292;-87
2022/06/23 07:06:59;;;;;;;12.03;3.77;;;;;;;;;;5005216;28;20264;-85
2022/06/23 07:09:25;;;;;;;6.90;2.93;;;;;;;;;;5025825;28;20182;-86
2022/06/23 07:11:53;;;;;;;7.63;2.83;;;;;;;;;;5006102;28;20206;-85
2022/06/23 07:14:18;;;;;;;5.93;2.60;;;;;;;;;;5009235;28;20222;-87
2022/06/23 07:16:43;;;;;;;5.73;3.60;;;;;;;;;;5008706;28;20218;-88
2022/06/23 07:19:21;;;;;;;8.18;3.20;;;;;;;;;;5012002;28;20314;-86
2022/06/23 07:21:55;;;;;;;4.03;2.90;;;;;;;;;;5010894;28;20187;-87
2022/06/23 07:24:26;;;;;;;3.70;2.80;;;;;;;;;;5007659;28;20198;-86
2022/06/23 07:26:51;;;;;;;4.63;2.97;;;;;;;;;;5010363;28;20185;-86
2022/06/23 07:29:19;;;;;;;5.17;3.53;;;;;;;;;;5011126;28;20170;-86
2022/06/23 07:31:53;;;;;;;3.77;2.27;;;;;;;;;;5010091;28;20199;-86
2022/06/23 07:34:19;;;;;;;5.77;2.60;;;;;;;;;;5010478;28;20181;-85
2022/06/23 07:37:11;;;;;;;6.47;2.50;;;;;;;;;;5025633;28;20211;-87
2022/06/23 07:39:37;;;;;;;4.97;2.50;;;;;;;;;;5006987;28;20191;-85
2022/06/23 07:42:12;;;;;;;7.73;3.13;;;;;;;;;;5009853;28;20187;-87
2022/06/23 07:44:40;;;;;;;7.80;3.00;;;;;;;;;;5011318;28;20255;-87
2022/06/23 07:47:05;;;;;;;6.30;3.00;;;;;;;;;;5012190;28;20211;-85
2022/06/23 07:49:32;;;;;;;5.90;2.90;;;;;;;;;;5006125;28;20221;-86
2022/06/23 07:51:57;;;;;;;12.73;3.00;;;;;;;;;;5003817;28;20181;-86
2022/06/23 07:54:23;;;;;;;4.57;3.00;;;;;;;;;;5008226;28;20173;-85
2022/06/23 07:56:49;;;;;;;5.10;2.70;;;;;;;;;;5011355;28;20291;-85
2022/06/23 07:59:16;;;;;;;5.13;2.50;;;;;;;;;;5008116;28;20190;-86
2022/06/23 08:02:08;;;;;;;16.43;3.20;;;;;;;;;;5009373;28;20177;-85
2022/06/23 08:04:38;;;;;;;7.07;2.90;;;;;;;;;;5005843;28;20199;-84
2022/06/23 08:07:04;;;;;;;4.43;3.50;;;;;;;;;;5010528;28;20184;-86
2022/06/23 08:09:37;;;;;;;10.13;2.93;;;;;;;;;;5009649;28;20186;-85
2022/06/23 08:16:49;;;;;;;7.43;3.23;;;;;;;;;;5009092;28;20556;-86
2022/06/23 08:17:44;;;;;;;7.63;2.70;;;;;;;;;;5012090;28;20217;-85
2022/06/23 08:20:12;;;;;;;7.13;3.17;;;;;;;;;;5010154;28;20202;-86
2022/06/23 08:22:39;;;;;;;7.73;3.30;;;;;;;;;;5010114;28;20203;-86
2022/06/23 08:25:06;;;;;;;6.17;2.57;;;;;;;;;;5008269;28;20213;-85
2022/06/23 08:27:31;;;;;;;6.60;3.17;;;;;;;;;;5010138;28;20179;-86
2022/06/23 08:30:00;;;;;;;6.83;2.87;;;;;;;;;;5009642;28;20186;-85
2022/06/23 08:32:25;;;;;;;8.50;3.53;;;;;;;;;;5009689;28;20183;-86
2022/06/23 08:34:59;;;;;;;6.50;2.67;;;;;;;;;;5010870;28;20202;-84
2022/06/23 08:37:24;;;;;;;6.73;2.90;;;;;;;;;;5012973;28;20221;-86
2022/06/23 08:39:58;;;;;;;8.73;3.20;;;;;;;;;;5008370;28;20201;-85
2022/06/23 08:42:27;;;;;;;4.33;2.80;;;;;;;;;;5003265;28;20187;-85
2022/06/23 08:44:58;;;;;;;5.00;2.80;;;;;;;;;;5011542;28;20247;-86
2022/06/23 08:47:32;;;;;;;5.30;2.60;;;;;;;;;;5011759;28;20183;-85
2022/06/23 08:50:05;;;;;;;6.70;3.40;;;;;;;;;;5005975;28;20179;-87
2022/06/23 08:52:49;;;;;;;5.17;2.80;;;;;;;;;;5010135;28;20182;-86
2022/06/23 08:55:20;;;;;;;10.40;4.37;;;;;;;;;;5008862;28;20187;-85
2022/06/23 08:57:55;;;;;;;5.90;3.00;;;;;;;;;;5009158;28;20199;-86
2022/06/23 09:00:20;;;;;;;6.82;2.55;;;;;;;;;;5022448;28;20183;-85
2022/06/23 09:02:56;;;;;;;6.97;3.87;;;;;;;;;;5009058;28;20184;-85
2022/06/23 09:05:42;;;;;;;7.45;3.53;;;;;;;;;;5024217;28;20175;-86
2022/06/23 09:08:23;;;;;;;7.57;3.95;;;;;;;;;;5008570;28;20183;-85
2022/06/23 09:10:55;;;;;;;6.47;2.80;;;;;;;;;;5006172;28;20270;-85
2022/06/23 09:13:26;;;;;;;4.60;2.55;;;;;;;;;;5008111;28;20191;-85
2022/06/23 09:16:03;;;;;;;7.13;3.30;;;;;;;;;;5004198;28;20182;-84
2022/06/23 09:18:40;;;;;;;7.70;2.85;;;;;;;;;;5023939;28;20215;-86
2022/06/23 09:21:25;;;;;;;4.40;2.50;;;;;;;;;;5007028;28;20270;-85
2022/06/23 09:23:59;;;;;;;6.95;2.80;;;;;;;;;;5006908;28;20203;-85
2022/06/23 09:26:46;;;;;;;4.60;3.00;;;;;;;;;;5010471;28;20187;-85
2022/06/23 09:29:15;;;;;;;7.70;3.55;;;;;;;;;;5014660;28;20175;-85
2022/06/23 09:31:52;;;;;;;6.70;3.40;;;;;;;;;;5017619;28;20183;-87
2022/06/23 09:34:34;;;;;;;5.90;2.67;;;;;;;;;;5010850;28;20209;-87
2022/06/23 09:37:15;;;;;;;5.80;3.40;;;;;;;;;;5012459;28;20238;-86
2022/06/23 09:39:56;;;;;;;7.00;2.92;;;;;;;;;;5011459;28;20257;-85
2022/06/23 09:42:21;;;;;;;11.77;3.15;;;;;;;;;;5013935;28;20183;-84
2022/06/23 09:44:47;;;;;;;17.33;4.43;;;;;;;;;;5011486;28;20198;-85
2022/06/23 09:47:21;;;;;;;6.43;2.88;;;;;;;;;;5011791;28;20183;-85
2022/06/23 09:50:05;;;;;;;11.10;4.05;;;;;;;;;;5013782;28;20179;-85
2022/06/23 09:52:36;;;;;;;8.13;2.85;;;;;;;;;;5002461;28;20175;-85
2022/06/23 09:55:05;;;;;;;7.85;3.28;;;;;;;;;;5006207;28;20175;-85
2022/06/23 09:57:46;;;;;;;5.28;3.47;;;;;;;;;;5009726;28;20207;-85
2022/06/23 10:00:15;;;;;;;6.50;2.60;;;;;;;;;;5009113;28;20171;-85
2022/06/23 10:02:43;;;;;;;7.95;3.10;;;;;;;;;;5004804;28;20179;-85
2022/06/23 10:05:27;;;;;;;10.20;3.05;;;;;;;;;;5024846;28;20183;-85
2022/06/23 10:08:27;;;;;;;10.10;3.45;;;;;;;;;;5010946;28;20195;-86
2022/06/23 10:11:13;;;;;;;5.30;2.38;;;;;;;;;;4973870;28;20222;-86
2022/06/23 10:13:56;;;;;;;5.32;2.80;;;;;;;;;;5009700;28;20237;-85
2022/06/23 10:16:47;;;;;;;5.60;2.80;;;;;;;;;;5010998;28;20199;-85
2022/06/23 10:19:24;;;;;;;6.53;2.83;;;;;;;;;;5002871;28;20268;-85
2022/06/23 10:22:08;;;;;;;9.52;2.92;;;;;;;;;;5002288;28;20172;-84
2022/06/23 10:24:42;;;;;;;10.43;2.90;;;;;;;;;;5006275;28;20180;-85
2022/06/23 10:27:27;;;;;;;6.38;3.17;;;;;;;;;;5008781;28;20222;-85
2022/06/23 10:29:52;;;;;;;7.57;4.22;;;;;;;;;;5021271;28;20187;-85
2022/06/23 10:32:17;;;;;;;4.77;3.20;;;;;;;;;;5010744;28;20233;-84
2022/06/23 10:34:42;;;;;;;6.82;2.60;;;;;;;;;;5013433;28;20413;-85
2022/06/23 10:37:08;;;;;;;7.17;2.53;;;;;;;;;;5010232;28;20211;-85
2022/06/23 10:39:33;;;;;;;5.57;3.20;;;;;;;;;;5010822;28;20427;-85
2022/06/23 10:42:04;;;;;;;6.38;3.00;;;;;;;;;;5008947;28;20180;-85
2022/06/23 10:44:43;;;;;;;5.60;3.30;;;;;;;;;;5009367;28;20176;-85
2022/06/23 10:47:26;;;;;;;8.23;3.58;;;;;;;;;;5013971;28;20174;-85
2022/06/23 10:49:57;;;;;;;4.82;3.03;;;;;;;;;;5006864;28;20195;-85
2022/06/23 10:52:23;;;;;;;8.80;3.22;;;;;;;;;;5008800;28;20194;-85
2022/06/23 10:54:54;;;;;;;4.90;2.80;;;;;;;;;;5008995;28;20191;-84
2022/06/23 10:57:38;;;;;;;5.72;3.25;;;;;;;;;;5008486;28;20261;-84
2022/06/23 11:00:09;;;;;;;10.27;3.40;;;;;;;;;;5009150;28;20211;-85
2022/06/23 11:02:34;;;;;;;6.32;3.00;;;;;;;;;;5003786;28;20234;-85
2022/06/23 11:05:15;;;;;;;7.13;2.92;;;;;;;;;;5007863;28;20207;-85
2022/06/23 11:08:01;;;;;;;13.13;3.38;;;;;;;;;;5011139;28;20183;-85
2022/06/23 11:10:45;;;;;;;9.15;3.20;;;;;;;;;;5011895;28;20179;-85
2022/06/23 11:13:16;;;;;;;6.85;2.80;;;;;;;;;;5014923;28;20191;-85
2022/06/23 11:16:00;;;;;;;5.50;3.45;;;;;;;;;;5009406;28;20193;-85
2022/06/23 11:18:35;;;;;;;5.45;3.10;;;;;;;;;;5011744;28;20245;-85
2022/06/23 11:21:01;;;;;;;8.38;3.58;;;;;;;;;;5013153;28;20186;-85
2022/06/23 11:23:31;;;;;;;6.82;3.03;;;;;;;;;;5011462;28;20235;-85
2022/06/23 11:26:06;;;;;;;7.22;3.20;;;;;;;;;;5012398;28;20270;-85
2022/06/23 11:28:50;;;;;;;7.90;3.00;;;;;;;;;;5010860;28;20221;-85
2022/06/23 11:31:15;;;;;;;8.25;3.30;;;;;;;;;;5006599;28;20262;-86
2022/06/23 11:33:54;;;;;;;5.57;2.70;;;;;;;;;;5008520;28;20266;-85
2022/06/23 11:36:30;;;;;;;8.98;2.97;;;;;;;;;;5011564;28;20445;-84
2022/06/23 11:39:07;;;;;;;6.65;2.70;;;;;;;;;;5015598;28;20179;-84
2022/06/23 11:41:51;;;;;;;9.30;3.58;;;;;;;;;;5009516;28;20182;-85
2022/06/23 11:44:22;;;;;;;7.32;3.35;;;;;;;;;;5026807;28;20225;-85
2022/06/23 11:46:54;;;;;;;9.25;3.33;;;;;;;;;;5008365;28;20280;-85
2022/06/23 11:49:20;;;;;;;7.05;2.95;;;;;;;;;;5010457;28;20243;-85
2022/06/23 11:52:04;;;;;;;4.07;3.00;;;;;;;;;;5008951;28;20191;-85
2022/06/23 11:54:43;;;;;;;5.70;3.13;;;;;;;;;;5011225;28;20261;-85
2022/06/23 11:57:11;;;;;;;5.47;2.72;;;;;;;;;;5010765;28;20287;-85
2022/06/23 11:59:55;;;;;;;8.40;3.35;;;;;;;;;;5008907;28;20232;-84
2022/06/23 12:02:20;;;;;;;8.07;3.13;;;;;;;;;;5010057;28;20203;-84
2022/06/23 12:04:48;;;;;;;6.55;2.92;;;;;;;;;;5010615;28;20182;-85
2022/06/23 12:07:33;;;;;;;10.70;3.00;;;;;;;;;;5008868;28;20243;-85
2022/06/23 12:10:13;;;;;;;7.90;2.83;;;;;;;;;;5009152;28;20183;-85
2022/06/23 12:12:40;;;;;;;5.15;2.50;;;;;;;;;;5011979;28;20175;-85
2022/06/23 12:15:06;;;;;;;5.57;3.17;;;;;;;;;;5011593;28;20179;-85
2022/06/23 12:17:41;;;;;;;5.68;2.75;;;;;;;;;;5016826;28;20199;-85
2022/06/23 12:20:28;;;;;;;4.85;2.70;;;;;;;;;;5022877;28;20223;-85
2022/06/23 12:22:59;;;;;;;5.95;2.70;;;;;;;;;;5007207;28;20176;-84
2022/06/23 12:25:27;;;;;;;8.90;2.75;;;;;;;;;;5010274;28;20267;-85
2022/06/23 12:27:52;;;;;;;6.43;2.65;;;;;;;;;;5011441;28;20182;-85
2022/06/23 12:30:18;;;;;;;4.47;2.93;;;;;;;;;;5010205;28;20175;-85
2022/06/23 12:33:02;;;;;;;5.40;2.65;;;;;;;;;;5010122;28;20636;-85
2022/06/23 12:35:40;;;;;;;5.45;2.70;;;;;;;;;;5025636;28;20187;-84
2022/06/23 12:38:11;;;;;;;8.55;3.08;;;;;;;;;;5002397;28;20212;-85
2022/06/23 12:40:40;;;;;;;13.18;3.50;;;;;;;;;;5006198;28;20182;-85
2022/06/23 12:43:29;;;;;;;10.40;3.13;;;;;;;;;;5009060;28;20176;-85
2022/06/23 12:46:05;;;;;;;5.65;2.60;;;;;;;;;;5003003;28;20191;-85
2022/06/23 12:48:31;;;;;;;5.90;2.85;;;;;;;;;;5010941;28;20187;-85
2022/06/23 12:51:05;;;;;;;8.13;2.70;;;;;;;;;;5009001;28;20180;-85
2022/06/23 12:53:42;;;;;;;7.75;3.42;;;;;;;;;;5006304;28;20274;-85
2022/06/23 12:56:13;;;;;;;5.95;3.00;;;;;;;;;;5007293;28;20179;-85
2022/06/23 12:58:56;;;;;;;11.75;2.60;;;;;;;;;;5007878;28;20179;-85
2022/06/23 13:01:33;;;;;;;4.28;2.45;;;;;;;;;;5012000;28;20175;-85
2022/06/23 13:04:04;;;;;;;8.70;2.88;;;;;;;;;;5010664;28;20179;-85
2022/06/23 13:06:29;;;;;;;8.48;3.67;;;;;;;;;;5008489;28;20180;-85
2022/06/23 13:09:03;;;;;;;9.00;2.97;;;;;;;;;;5009743;28;20175;-85
2022/06/23 13:11:39;;;;;;;9.52;3.38;;;;;;;;;;5006458;28;20425;-84
2022/06/23 13:14:13;;;;;;;7.72;3.10;;;;;;;;;;5021395;28;20198;-85
2022/06/23 13:16:41;;;;;;;5.45;3.05;;;;;;;;;;5021311;28;20196;-84
2022/06/23 13:19:16;;;;;;;4.65;2.42;;;;;;;;;;5008113;28;20216;-85
2022/06/23 13:21:41;;;;;;;5.03;2.65;;;;;;;;;;5005976;28;20183;-85
2022/06/23 13:24:09;;;;;;;5.28;2.42;;;;;;;;;;5007851;28;20175;-85
2022/06/23 13:26:37;;;;;;;6.53;3.40;;;;;;;;;;5010191;28;20274;-84
2022/06/23 13:29:06;;;;;;;5.55;2.53;;;;;;;;;;5009904;28;20184;-85
2022/06/23 13:31:31;;;;;;;10.32;2.95;;;;;;;;;;5024458;28;20171;-86
2022/06/23 13:33:59;;;;;;;5.03;2.35;;;;;;;;;;5010219;28;20171;-86
2022/06/23 13:36:39;;;;;;;6.95;3.03;;;;;;;;;;5003144;28;20208;-87
2022/06/23 13:39:09;;;;;;;8.18;2.65;;;;;;;;;;5010522;28;20205;-87
2022/06/23 13:41:38;;;;;;;7.32;2.67;;;;;;;;;;5008033;28;20183;-86
2022/06/23 13:44:14;;;;;;;6.25;2.70;;;;;;;;;;5010276;28;20262;-86
2022/06/23 13:46:48;;;;;;;6.07;3.13;;;;;;;;;;5006691;28;20171;-87
2022/06/23 13:49:24;;;;;;;5.80;2.15;;;;;;;;;;5010072;28;20207;-86
2022/06/23 13:51:54;;;;;;;5.32;2.22;;;;;;;;;;5008705;28;20186;-86
2022/06/23 13:54:19;;;;;;;5.40;2.95;;;;;;;;;;5009563;28;20261;-87
2022/06/23 13:56:47;;;;;;;5.57;2.83;;;;;;;;;;5008774;28;20210;-86
2022/06/23 13:59:32;;;;;;;4.68;3.00;;;;;;;;;;5009223;28;20179;-86
2022/06/23 14:02:09;;;;;;;6.40;2.60;;;;;;;;;;4998261;28;20187;-87
2022/06/23 14:04:42;;;;;;;7.80;2.47;;;;;;;;;;5006731;28;20197;-86
2022/06/23 14:07:07;;;;;;;4.53;2.53;;;;;;;;;;5024157;28;20191;-86
2022/06/23 14:09:41;;;;;;;5.60;2.88;;;;;;;;;;5009847;28;20179;-86
2022/06/23 14:12:18;;;;;;;6.43;2.70;;;;;;;;;;5008109;28;20180;-86
2022/06/23 14:15:00;;;;;;;4.15;2.40;;;;;;;;;;5008093;28;20175;-86
2022/06/23 14:17:34;;;;;;;5.85;2.40;;;;;;;;;;5009212;28;20206;-86
2022/06/23 14:20:13;;;;;;;6.75;2.88;;;;;;;;;;5006641;28;20308;-87
2022/06/23 14:22:40;;;;;;;6.30;2.65;;;;;;;;;;5007539;28;20226;-87
2022/06/23 14:25:14;;;;;;;5.60;2.65;;;;;;;;;;5009355;28;20213;-86
2022/06/23 14:27:45;;;;;;;4.93;2.60;;;;;;;;;;5013519;28;20174;-86
2022/06/23 14:30:10;;;;;;;5.72;3.15;;;;;;;;;;5008326;28;20176;-86
2022/06/23 14:32:42;;;;;;;5.18;2.70;;;;;;;;;;5003809;28;20176;-86
2022/06/23 14:35:15;;;;;;;10.25;2.45;;;;;;;;;;5009803;28;20505;-86
2022/06/23 14:37:44;;;;;;;7.13;2.60;;;;;;;;;;5007629;28;20211;-86
2022/06/23 14:40:10;;;;;;;5.38;2.40;;;;;;;;;;5006937;28;20183;-87
2022/06/23 14:42:54;;;;;;;8.17;2.90;;;;;;;;;;5009623;28;20180;-83
2022/06/23 14:45:29;;;;;;;6.70;3.35;;;;;;;;;;5012612;28;20412;-85
2022/06/23 14:48:04;;;;;;;4.25;2.30;;;;;;;;;;5013016;28;20179;-85
2022/06/23 14:50:29;;;;;;;5.70;2.80;;;;;;;;;;5008958;28;20182;-86
2022/06/23 14:52:57;;;;;;;5.93;2.70;;;;;;;;;;5012653;28;20175;-86
2022/06/23 14:55:41;;;;;;;5.28;2.38;;;;;;;;;;5010598;28;20428;-86
2022/06/23 14:58:16;;;;;;;7.97;3.05;;;;;;;;;;5012758;28;20207;-86
2022/06/23 15:00:41;;;;;;;4.68;2.55;;;;;;;;;;5006243;28;20175;-86
2022/06/23 15:03:09;;;;;;;8.20;2.75;;;;;;;;;;5010064;28;20246;-86
2022/06/23 15:05:44;;;;;;;6.32;2.92;;;;;;;;;;5000395;28;20193;-86
2022/06/23 15:08:09;;;;;;;6.53;2.70;;;;;;;;;;5024290;28;20179;-86
2022/06/23 15:10:44;;;;;;;4.43;2.45;;;;;;;;;;5010835;28;20179;-86
2022/06/23 15:13:18;;;;;;;3.97;2.40;;;;;;;;;;5014179;28;20408;-86
2022/06/23 15:15:51;;;;;;;6.97;2.47;;;;;;;;;;5013138;28;20175;-86
2022/06/23 15:18:16;;;;;;;7.07;2.70;;;;;;;;;;5011655;28;20278;-86
2022/06/23 15:20:56;;;;;;;8.03;2.70;;;;;;;;;;5012278;28;20195;-86